Time;durP1;ratioP1;P1;durP2;ratioP2;P2;SDS_P1;SDS_P2;PMS_P1;PMS_P2;Temp;Humidity;BMP_temperature;BMP_pressure;BME280_temperature;BME280_humidity;BME280_pressure;Samples;Min_cycle;Max_cycle;Signal;HPM_P1;HPM_P2
2023/06/30 00:02:12;;;;;;;5.17;3.20;;;;;;;16.43;81.63;99260.34;1774639;80;21076;-62
2023/06/30 00:04:40;;;;;;;6.03;3.55;;;;;;;16.38;81.71;99264.44;1774138;80;21100;-61
2023/06/30 00:07:10;;;;;;;6.22;3.30;;;;;;;16.34;81.88;99267.45;1776896;80;21022;-62
2023/06/30 00:09:39;;;;;;;7.10;3.15;;;;;;;16.30;82.05;99265.47;1787892;80;21052;-62
2023/06/30 00:12:09;;;;;;;4.28;2.83;;;;;;;16.29;82.27;99254.97;1776071;80;21456;-61
2023/06/30 00:14:38;;;;;;;3.98;3.10;;;;;;;16.26;82.38;99261.02;1787956;80;21131;-62
2023/06/30 00:17:06;;;;;;;6.55;3.70;;;;;;;16.26;82.56;99255.49;1775835;80;21041;-61
2023/06/30 00:19:35;;;;;;;6.17;3.27;;;;;;;16.24;82.57;99258.20;1776829;80;21045;-61
2023/06/30 00:22:05;;;;;;;3.72;2.98;;;;;;;16.20;82.64;99258.44;1779455;80;21104;-62
2023/06/30 00:24:33;;;;;;;5.15;3.37;;;;;;;16.20;82.83;99258.44;1774319;80;21114;-62
2023/06/30 00:27:02;;;;;;;4.35;3.00;;;;;;;16.20;82.86;99253.75;1776915;80;21045;-61
2023/06/30 00:29:31;;;;;;;6.25;3.40;;;;;;;16.21;82.84;99249.89;1774157;80;21021;-62
2023/06/30 00:31:59;;;;;;;3.77;2.80;;;;;;;16.22;82.83;99252.10;1777319;80;21017;-62
2023/06/30 00:34:28;;;;;;;6.28;3.30;;;;;;;16.18;82.87;99256.77;1785223;80;21077;-62
2023/06/30 00:36:57;;;;;;;6.87;3.40;;;;;;;16.16;82.87;99258.13;1774461;80;21060;-62
2023/06/30 00:39:26;;;;;;;5.37;3.52;;;;;;;16.14;82.99;99258.39;1782419;80;21081;-62
2023/06/30 00:41:55;;;;;;;4.78;3.02;;;;;;;16.11;83.07;99256.16;1779804;80;21029;-62
2023/06/30 00:44:25;;;;;;;5.15;3.10;;;;;;;16.07;83.27;99253.63;1777303;80;21528;-61
2023/06/30 00:46:54;;;;;;;4.72;3.15;;;;;;;16.05;83.38;99257.20;1777280;80;21128;-62
2023/06/30 00:49:24;;;;;;;5.30;3.12;;;;;;;16.03;83.50;99258.02;1777216;80;21044;-62
2023/06/30 00:51:52;;;;;;;5.60;3.10;;;;;;;16.02;83.66;99259.10;1777384;80;21108;-62
2023/06/30 00:54:21;;;;;;;4.42;3.15;;;;;;;16.03;83.68;99269.61;1774306;80;21053;-61
2023/06/30 00:56:50;;;;;;;5.95;2.90;;;;;;;16.02;83.72;99266.02;1774536;81;21029;-62
2023/06/30 00:59:21;;;;;;;4.90;3.40;;;;;;;16.01;83.81;99271.80;1774694;80;21120;-62
2023/06/30 01:02:01;;;;;;;7.58;3.60;;;;;;;16.00;83.86;99275.66;1774447;80;21064;-62
2023/06/30 01:05:00;;;;;;;5.05;3.05;;;;;;;15.98;83.94;99266.25;1774882;80;21060;-62
2023/06/30 01:08:15;;;;;;;5.17;3.08;;;;;;;15.98;84.09;99273.70;1775045;80;21053;-62
2023/06/30 01:10:44;;;;;;;4.47;2.87;;;;;;;15.96;84.09;99268.44;1778194;80;21073;-62
2023/06/30 01:13:14;;;;;;;4.00;3.17;;;;;;;15.93;84.00;99270.34;1779162;80;21453;-62
2023/06/30 01:15:43;;;;;;;5.87;2.92;;;;;;;15.91;84.13;99266.17;1777871;80;21052;-62
2023/06/30 01:18:12;;;;;;;5.70;3.70;;;;;;;15.89;84.12;99274.72;1774876;80;21465;-62
2023/06/30 01:20:40;;;;;;;3.85;3.08;;;;;;;15.87;84.24;99268.62;1774504;81;21057;-63
2023/06/30 01:23:26;;;;;;;5.42;3.30;;;;;;;15.84;84.28;99273.28;1774458;80;21041;-62
2023/06/30 01:25:58;;;;;;;5.92;3.30;;;;;;;15.80;84.35;99265.23;1735300;80;21045;-62
2023/06/30 01:28:28;;;;;;;5.08;3.17;;;;;;;15.77;84.51;99262.98;1774836;80;21088;-62
2023/06/30 01:30:59;;;;;;;4.45;3.33;;;;;;;15.78;84.70;99261.89;1774618;80;21096;-62
2023/06/30 01:33:28;;;;;;;5.33;3.55;;;;;;;15.76;84.61;99262.15;1773641;80;21157;-62
2023/06/30 01:35:56;;;;;;;4.97;3.42;;;;;;;15.74;84.67;99260.73;1774837;80;21033;-61
2023/06/30 01:38:26;;;;;;;4.45;3.45;;;;;;;15.75;84.78;99271.53;1774390;80;21073;-60
2023/06/30 01:40:55;;;;;;;5.95;3.22;;;;;;;15.75;84.70;99267.93;1782349;80;21052;-62
2023/06/30 01:43:23;;;;;;;5.20;3.22;;;;;;;15.75;84.72;99273.45;1774475;80;21033;-60
2023/06/30 01:45:52;;;;;;;5.85;3.47;;;;;;;15.75;84.73;99288.64;1786122;80;21071;-62
2023/06/30 01:48:20;;;;;;;4.75;3.25;;;;;;;15.75;84.64;99288.64;1774480;80;21069;-63
2023/06/30 01:50:50;;;;;;;9.75;3.67;;;;;;;15.72;84.69;99286.40;1774458;80;21053;-62
2023/06/30 01:53:21;;;;;;;4.37;3.33;;;;;;;15.72;84.79;99290.00;1777433;80;21076;-61
2023/06/30 01:55:49;;;;;;;7.47;3.30;;;;;;;15.72;84.84;99291.92;1774555;81;21296;-62
2023/06/30 01:58:17;;;;;;;6.12;3.42;;;;;;;15.71;84.85;99277.83;1774643;80;21096;-61
2023/06/30 02:00:46;;;;;;;3.90;3.05;;;;;;;15.71;84.82;99283.35;1782324;80;21122;-63
2023/06/30 02:03:15;;;;;;;5.70;3.55;;;;;;;15.70;84.78;99267.88;1779743;80;21085;-62
2023/06/30 02:05:44;;;;;;;4.53;3.37;;;;;;;15.72;84.85;99279.50;1774529;81;21045;-62
2023/06/30 02:08:14;;;;;;;4.95;3.40;;;;;;;15.75;84.84;99269.31;1752816;81;21107;-62
2023/06/30 02:10:42;;;;;;;5.65;3.12;;;;;;;15.75;84.66;99287.27;1774360;81;21049;-61
2023/06/30 02:13:13;;;;;;;5.70;3.50;;;;;;;15.77;84.56;99283.15;1777142;80;21060;-61
2023/06/30 02:15:42;;;;;;;4.33;3.30;;;;;;;15.78;84.47;99274.31;1774592;80;21501;-62
2023/06/30 02:18:13;;;;;;;5.47;3.52;;;;;;;15.83;84.45;99281.28;1774560;80;21037;-64
2023/06/30 02:20:41;;;;;;;4.35;3.37;;;;;;;15.86;84.30;99286.28;1777143;80;21064;-61
2023/06/30 02:23:09;;;;;;;5.00;3.33;;;;;;;15.89;84.17;99277.48;1775698;80;21108;-62
2023/06/30 02:25:40;;;;;;;10.20;3.50;;;;;;;15.91;84.05;99279.44;1774562;81;21033;-63
2023/06/30 02:28:09;;;;;;;6.47;3.42;;;;;;;15.95;83.93;99279.75;1774570;80;21080;-62
2023/06/30 02:30:37;;;;;;;8.60;3.45;;;;;;;15.98;83.64;99284.20;1774398;81;21052;-62
2023/06/30 02:33:07;;;;;;;5.95;3.45;;;;;;;16.01;83.64;99280.09;1773726;80;21480;-62
2023/06/30 02:35:37;;;;;;;7.08;3.52;;;;;;;16.05;83.47;99285.37;1773885;81;21549;-62
2023/06/30 02:38:06;;;;;;;5.83;3.62;;;;;;;16.07;83.29;99285.41;1785000;80;21108;-63
2023/06/30 02:40:36;;;;;;;6.05;3.52;;;;;;;16.07;82.97;99282.64;1769216;80;21028;-62
2023/06/30 02:43:04;;;;;;;8.10;3.35;;;;;;;16.05;82.96;99282.61;1776929;80;21296;-62
2023/06/30 02:45:33;;;;;;;6.45;3.83;;;;;;;16.05;83.05;99272.40;1777400;80;21080;-61
2023/06/30 02:48:02;;;;;;;7.70;3.67;;;;;;;16.05;83.04;99274.33;1774697;80;21127;-61
2023/06/30 02:50:31;;;;;;;6.37;3.42;;;;;;;16.06;82.99;99273.23;1753135;81;21084;-62
2023/06/30 02:53:00;;;;;;;8.33;4.12;;;;;;;16.07;83.01;99269.37;1774633;80;21084;-62
2023/06/30 02:55:28;;;;;;;4.12;3.15;;;;;;;16.07;82.88;99268.83;1773533;80;21033;-62
2023/06/30 02:57:57;;;;;;;5.55;3.45;;;;;;;16.08;82.98;99273.26;1777248;80;21049;-62
2023/06/30 03:00:26;;;;;;;4.28;3.30;;;;;;;16.12;82.90;99279.93;1782373;80;21094;-63
2023/06/30 03:02:56;;;;;;;5.62;3.62;;;;;;;16.15;82.87;99277.19;1774439;80;21117;-62
2023/06/30 03:05:25;;;;;;;6.40;3.40;;;;;;;16.15;82.74;99276.64;1774749;80;21104;-63
2023/06/30 03:07:54;;;;;;;5.37;3.70;;;;;;;16.15;82.67;99279.41;1774466;80;21586;-61
2023/06/30 03:10:23;;;;;;;6.40;3.58;;;;;;;16.15;82.64;99271.11;1777213;80;21056;-62
2023/06/30 03:12:52;;;;;;;5.47;3.80;;;;;;;16.17;82.61;99276.37;1774610;81;21077;-60
2023/06/30 03:15:22;;;;;;;5.58;3.50;;;;;;;16.20;82.51;99279.17;1774423;81;21064;-62
2023/06/30 03:17:55;;;;;;;6.30;3.50;;;;;;;16.22;82.52;99283.88;1785056;80;21017;-62
2023/06/30 03:20:25;;;;;;;5.08;3.52;;;;;;;16.25;82.49;99272.30;1774327;81;21503;-62
2023/06/30 03:22:54;;;;;;;7.00;3.70;;;;;;;16.28;82.26;99272.64;1779902;80;21105;-63
2023/06/30 03:25:22;;;;;;;4.25;3.22;;;;;;;16.30;82.21;99272.38;1774587;80;21076;-64
2023/06/30 03:27:51;;;;;;;4.83;3.40;;;;;;;16.34;82.12;99274.36;1775731;80;21048;-63
2023/06/30 03:30:20;;;;;;;6.08;3.62;;;;;;;16.36;82.09;99281.00;1779778;80;21508;-62
2023/06/30 03:32:49;;;;;;;5.53;3.98;;;;;;;16.38;82.01;99277.43;1773772;80;21068;-62
2023/06/30 03:35:19;;;;;;;6.37;3.45;;;;;;;16.41;81.91;99290.18;1774629;80;21109;-62
2023/06/30 03:37:47;;;;;;;5.97;3.85;;;;;;;16.43;81.73;99288.53;1774542;80;21513;-62
2023/06/30 03:40:17;;;;;;;4.85;3.72;;;;;;;16.45;81.80;99288.55;1775566;80;21111;-62
2023/06/30 03:42:47;;;;;;;6.17;3.92;;;;;;;16.48;81.56;99285.27;1786199;80;21112;-62
2023/06/30 03:45:15;;;;;;;7.70;3.92;;;;;;;16.49;81.49;99279.19;1775148;80;21089;-61
2023/06/30 03:47:46;;;;;;;4.25;3.60;;;;;;;16.51;81.52;99272.84;1774656;80;21043;-62
2023/06/30 03:50:15;;;;;;;5.10;3.52;;;;;;;16.53;81.18;99280.33;1787296;80;21099;-61
2023/06/30 03:52:45;;;;;;;9.23;4.95;;;;;;;16.52;81.08;99288.34;1779291;80;21040;-61
2023/06/30 03:55:14;;;;;;;6.45;3.87;;;;;;;16.51;81.17;99289.43;1774323;80;21492;-62
2023/06/30 03:57:43;;;;;;;7.08;3.77;;;;;;;16.52;81.31;99286.95;1777120;80;21090;-61
2023/06/30 04:00:13;;;;;;;6.85;4.00;;;;;;;16.53;81.26;99287.23;1776964;80;21045;-62
2023/06/30 04:02:41;;;;;;;5.97;4.10;;;;;;;16.54;81.24;99283.38;1751438;81;21085;-62
2023/06/30 04:05:10;;;;;;;7.12;4.03;;;;;;;16.58;81.27;99290.05;1774360;80;21065;-61
2023/06/30 04:07:40;;;;;;;8.05;4.35;;;;;;;16.60;81.28;99289.23;1774525;80;21089;-63
2023/06/30 04:10:09;;;;;;;5.58;4.05;;;;;;;16.62;81.15;99284.27;1782047;80;21057;-63
2023/06/30 04:12:38;;;;;;;5.58;3.80;;;;;;;16.63;81.08;99279.02;1774365;81;21041;-62
2023/06/30 04:15:07;;;;;;;5.47;3.92;;;;;;;16.67;81.08;99282.95;1774851;80;21481;-62
2023/06/30 04:17:36;;;;;;;7.28;4.33;;;;;;;16.72;80.98;99284.93;1774468;81;21017;-62
2023/06/30 04:20:09;;;;;;;6.62;4.20;;;;;;;16.76;80.92;99281.36;1779789;80;21449;-62
2023/06/30 04:22:37;;;;;;;7.30;4.10;;;;;;;16.83;81.02;99275.60;1774571;80;21029;-62
2023/06/30 04:25:06;;;;;;;8.73;4.10;;;;;;;16.90;80.56;99280.91;1773883;80;21041;-63
2023/06/30 04:27:36;;;;;;;6.72;4.58;;;;;;;16.95;80.46;99274.89;1774333;81;21089;-61
2023/06/30 04:30:08;;;;;;;6.55;4.25;;;;;;;16.99;80.39;99280.72;1774404;80;21029;-62
2023/06/30 04:32:38;;;;;;;7.30;4.55;;;;;;;17.05;80.21;99287.95;1774666;80;21538;-62
2023/06/30 04:35:08;;;;;;;7.12;4.30;;;;;;;17.07;80.01;99283.81;1774660;80;21521;-62
2023/06/30 04:37:40;;;;;;;7.60;4.50;;;;;;;17.14;79.81;99286.34;1785123;80;21088;-62
2023/06/30 04:40:08;;;;;;;4.53;3.90;;;;;;;17.19;79.49;99283.61;1776965;80;21488;-62
2023/06/30 08:00:06;;;;;;;12.28;6.15;;;;;;;26.09;47.97;99269.80;1773203;78;21072;-64
2023/06/30 08:02:43;;;;;;;5.80;4.72;;;;;;;26.31;47.09;99261.81;1748761;81;21039;-65
2023/06/30 08:05:11;;;;;;;18.02;12.28;;;;;;;26.50;46.50;99255.32;1847653;76;21022;-65
2023/06/30 08:07:45;;;;;;;7.45;5.28;;;;;;;26.58;45.27;99259.28;1838644;77;21044;-65
2023/06/30 08:10:16;;;;;;;11.57;4.80;;;;;;;26.60;44.73;99268.20;1824990;78;21028;-64
2023/06/30 08:12:47;;;;;;;7.47;4.92;;;;;;;26.56;44.27;99258.20;1820602;78;21072;-68
2023/06/30 08:15:16;;;;;;;5.85;4.40;;;;;;;26.56;43.97;99265.81;1820549;77;21188;-64
2023/06/30 08:17:46;;;;;;;8.75;5.40;;;;;;;26.63;44.02;99264.16;1816888;78;21075;-65
2023/06/30 08:20:18;;;;;;;6.85;4.22;;;;;;;26.63;44.02;99264.16;1842556;77;21536;-67
2023/06/30 08:22:46;;;;;;;7.83;4.92;;;;;;;26.75;44.06;99262.93;1842401;78;21031;-67
2023/06/30 08:25:20;;;;;;;5.70;4.50;;;;;;;26.94;43.75;99259.75;1824692;78;21046;-65
2023/06/30 08:27:51;;;;;;;6.03;4.72;;;;;;;27.07;42.66;99256.53;1814098;77;21139;-64
2023/06/30 08:30:21;;;;;;;6.20;4.55;;;;;;;27.04;42.72;99254.39;1819695;77;21447;-65
2023/06/30 08:32:54;;;;;;;8.45;5.15;;;;;;;27.07;43.18;99259.34;1822307;78;21056;-65
2023/06/30 08:35:26;;;;;;;7.67;4.45;;;;;;;27.21;43.97;99257.14;1842435;78;21016;-68
2023/06/30 08:37:55;;;;;;;5.65;4.55;;;;;;;27.41;43.61;99256.44;1842103;77;21540;-62
2023/06/30 08:40:30;;;;;;;9.08;5.08;;;;;;;27.57;43.64;99259.51;1829888;78;21051;-65
2023/06/30 08:43:02;;;;;;;6.00;4.90;;;;;;;27.71;43.03;99256.48;1837554;78;21521;-67
2023/06/30 08:45:31;;;;;;;5.45;4.90;;;;;;;27.71;43.19;99255.08;1825692;77;21058;-65
2023/06/30 08:48:06;;;;;;;7.42;4.53;;;;;;;27.60;43.17;99252.38;1806917;79;21038;-64
2023/06/30 08:50:35;;;;;;;7.42;5.22;;;;;;;27.47;43.24;99247.23;1790558;79;21011;-64
2023/06/30 08:53:05;;;;;;;7.87;4.42;;;;;;;27.38;42.08;99254.30;1807673;79;21059;-64
2023/06/30 08:55:34;;;;;;;6.03;4.60;;;;;;;27.28;41.94;99258.86;1786218;79;21055;-67
2023/06/30 08:58:04;;;;;;;8.50;5.10;;;;;;;27.26;41.63;99262.59;1807221;79;21387;-63
2023/06/30 09:00:35;;;;;;;7.95;4.83;;;;;;;27.21;42.41;99257.72;1792015;79;21504;-65
2023/06/30 09:03:04;;;;;;;6.08;4.62;;;;;;;27.24;42.37;99260.69;1807727;79;21071;-65
2023/06/30 09:05:39;;;;;;;7.00;4.80;;;;;;;27.30;42.00;99256.53;1807105;79;21011;-65
2023/06/30 09:08:13;;;;;;;6.55;4.53;;;;;;;27.41;41.33;99259.25;1805858;77;21009;-67
2023/06/30 09:10:43;;;;;;;6.65;4.90;;;;;;;27.45;41.45;99264.45;1797920;78;21444;-64
2023/06/30 09:13:12;;;;;;;5.45;4.67;;;;;;;27.56;41.67;99262.66;1821331;78;21080;-60
2023/06/30 09:15:42;;;;;;;5.35;4.70;;;;;;;27.56;41.25;99273.34;1819874;79;21037;-67
2023/06/30 09:18:11;;;;;;;10.48;4.62;;;;;;;27.41;40.75;99263.47;1814619;77;21044;-65
2023/06/30 09:20:41;;;;;;;5.45;4.80;;;;;;;27.18;41.32;99271.88;1823468;78;21534;-65
2023/06/30 09:23:10;;;;;;;6.12;4.50;;;;;;;26.93;42.13;99258.69;1798205;78;21091;-64
2023/06/30 09:25:40;;;;;;;6.42;4.50;;;;;;;26.93;42.13;99258.69;1820532;78;20996;-64
2023/06/30 09:28:12;;;;;;;5.97;4.80;;;;;;;26.84;42.11;99255.31;1797018;79;21048;-66
2023/06/30 09:30:46;;;;;;;8.25;4.50;;;;;;;26.70;42.71;99260.88;1793026;78;21134;-64
2023/06/30 09:33:16;;;;;;;5.85;4.67;;;;;;;26.59;41.81;99260.35;1818105;77;21052;-64
2023/06/30 09:35:46;;;;;;;8.88;5.05;;;;;;;26.50;42.12;99263.17;1819554;77;21444;-63
2023/06/30 09:38:18;;;;;;;6.47;4.65;;;;;;;26.48;42.00;99278.13;1817098;78;21048;-63
2023/06/30 09:40:50;;;;;;;7.47;4.97;;;;;;;26.42;42.17;99255.57;1819944;77;21143;-65
2023/06/30 09:43:24;;;;;;;8.28;4.37;;;;;;;26.32;41.84;99252.23;1819523;79;21468;-64
2023/06/30 09:46:00;;;;;;;6.80;4.87;;;;;;;26.20;42.79;99255.13;1820647;78;21761;-65
2023/06/30 09:48:31;;;;;;;6.62;4.70;;;;;;;26.08;42.11;99252.71;1819095;77;21444;-64
2023/06/30 09:51:00;;;;;;;5.45;4.53;;;;;;;25.97;42.70;99247.13;1797423;78;21071;-65
2023/06/30 09:53:37;;;;;;;6.17;4.58;;;;;;;25.96;43.60;99249.69;1818996;78;21095;-65
2023/06/30 09:56:08;;;;;;;8.18;4.75;;;;;;;26.00;43.73;99243.67;1819713;77;21048;-66
2023/06/30 09:58:42;;;;;;;7.37;4.83;;;;;;;26.04;43.99;99244.13;1823920;78;21091;-63
2023/06/30 10:01:12;;;;;;;5.97;4.47;;;;;;;26.10;43.77;99246.20;1820870;78;21044;-64
2023/06/30 10:03:52;;;;;;;6.22;5.00;;;;;;;26.05;43.47;99248.58;1820847;77;21040;-66
2023/06/30 10:06:23;;;;;;;6.40;5.10;;;;;;;25.95;43.93;99243.25;1819559;78;21060;-66
2023/06/30 10:08:51;;;;;;;5.37;4.83;;;;;;;25.97;43.69;99256.95;1834058;78;21094;-66
2023/06/30 10:11:23;;;;;;;8.10;4.95;;;;;;;25.97;43.27;99244.33;1841616;77;21051;-65
2023/06/30 10:13:57;;;;;;;9.25;4.97;;;;;;;25.85;43.45;99235.97;1848881;77;21038;-65
2023/06/30 10:16:27;;;;;;;7.37;5.10;;;;;;;25.80;44.23;99238.11;1820825;77;21085;-65
2023/06/30 10:18:56;;;;;;;6.17;4.62;;;;;;;25.86;44.08;99229.20;1841610;78;21057;-66
2023/06/30 10:21:25;;;;;;;6.10;4.72;;;;;;;25.90;43.24;99226.57;1836417;78;21043;-66
2023/06/30 10:23:54;;;;;;;10.15;5.22;;;;;;;25.82;42.77;99244.22;1841748;77;21055;-65
2023/06/30 10:26:24;;;;;;;7.28;4.60;;;;;;;25.65;41.84;99233.75;1842446;77;21047;-67
2023/06/30 10:28:54;;;;;;;6.37;4.83;;;;;;;25.54;42.21;99226.78;1836455;77;21042;-65
2023/06/30 10:31:23;;;;;;;6.95;4.62;;;;;;;25.53;42.41;99225.96;1841648;76;21039;-65
2023/06/30 10:33:53;;;;;;;6.17;4.45;;;;;;;25.52;42.84;99222.91;1842188;77;21534;-65
2023/06/30 10:36:24;;;;;;;7.60;5.20;;;;;;;25.58;43.05;99214.59;1829889;78;21035;-67
2023/06/30 10:38:54;;;;;;;6.72;5.25;;;;;;;25.65;43.09;99218.31;1842319;77;20995;-64
2023/06/30 10:41:23;;;;;;;6.25;4.90;;;;;;;25.73;43.44;99227.94;1836456;77;21070;-68
2023/06/30 10:44:09;;;;;;;9.78;5.08;;;;;;;25.82;42.89;99216.98;1841587;76;21114;-69
2023/06/30 10:46:53;;;;;;;7.10;4.75;;;;;;;25.89;42.38;99220.70;1841581;78;21031;-69
2023/06/30 10:49:39;;;;;;;7.10;4.65;;;;;;;25.90;42.12;99219.55;1822126;77;21058;-75
2023/06/30 10:52:27;;;;;;;9.00;4.50;;;;;;;25.89;41.73;99212.28;1842365;78;21102;-78
2023/06/30 10:54:56;;;;;;;10.28;4.85;;;;;;;25.85;42.30;99212.12;1822051;78;21039;-79
2023/06/30 10:57:25;;;;;;;5.83;4.47;;;;;;;25.86;41.88;99208.16;1807084;77;21027;-78
2023/06/30 11:00:14;;;;;;;8.85;4.62;;;;;;;25.87;41.45;99202.79;1842028;78;21051;-77
2023/06/30 11:02:59;;;;;;;8.23;4.90;;;;;;;25.83;42.25;99200.39;1841562;78;21067;-78
2023/06/30 11:05:33;;;;;;;9.20;5.12;;;;;;;25.81;42.02;99205.51;1818228;78;21035;-80
2023/06/30 11:08:06;;;;;;;8.18;5.17;;;;;;;25.81;42.46;99192.87;1813009;77;21083;-70
2023/06/30 11:10:45;;;;;;;6.37;4.80;;;;;;;25.90;42.74;99192.31;1823830;78;21063;-71
2023/06/30 11:13:14;;;;;;;6.20;4.92;;;;;;;25.95;42.24;99198.34;1820808;78;21036;-68
2023/06/30 11:15:47;;;;;;;6.03;5.00;;;;;;;25.86;42.30;99196.10;1818276;79;21036;-65
2023/06/30 11:18:22;;;;;;;6.03;4.75;;;;;;;25.74;42.72;99191.71;1798727;78;21017;-69
2023/06/30 11:21:06;;;;;;;11.48;5.20;;;;;;;25.64;42.71;99187.78;1820701;78;21456;-73
2023/06/30 11:23:42;;;;;;;11.65;8.35;;;;;;;25.63;42.77;99194.55;1819395;79;21048;-72
2023/06/30 11:26:17;;;;;;;10.27;6.10;;;;;;;25.54;43.17;99185.53;1820048;78;21429;-81
2023/06/30 11:28:48;;;;;;;11.83;5.83;;;;;;;25.52;43.95;99203.27;1819817;77;21463;-76
2023/06/30 11:31:17;;;;;;;8.85;5.42;;;;;;;25.52;50.14;99219.27;1820317;78;21044;-76
2023/06/30 11:33:46;;;;;;;14.85;10.80;;;;;;;25.17;52.43;99202.30;1820667;77;21080;-75
2023/06/30 11:36:17;;;;;;;9.75;5.78;;;;;;;24.66;55.29;99212.59;1819424;78;21056;-80
2023/06/30 11:38:46;;;;;;;7.80;5.28;;;;;;;24.25;56.06;99206.59;1820932;78;21060;-77
2023/06/30 11:41:19;;;;;;;13.32;6.30;;;;;;;23.97;56.88;99203.61;1814169;78;21111;-73
2023/06/30 11:43:53;;;;;;;12.00;6.25;;;;;;;23.83;58.51;99204.21;1819041;77;21130;-76
2023/06/30 11:46:23;;;;;;;6.12;4.70;;;;;;;23.77;58.05;99198.48;1820759;77;21040;-76
2023/06/30 11:48:52;;;;;;;6.53;4.80;;;;;;;23.78;57.74;99204.33;1797796;78;21047;-78
2023/06/30 11:51:22;;;;;;;6.45;5.03;;;;;;;23.77;55.05;99198.48;1819659;78;21060;-79
2023/06/30 11:53:54;;;;;;;8.05;5.22;;;;;;;23.78;54.15;99209.35;1797771;78;21564;-78
2023/06/30 11:56:23;;;;;;;9.13;4.95;;;;;;;23.82;52.94;99203.95;1797386;78;21060;-79
2023/06/30 11:58:53;;;;;;;5.42;4.75;;;;;;;23.88;52.74;99211.09;1819588;77;21071;-78
2023/06/30 12:01:21;;;;;;;5.30;4.70;;;;;;;23.98;52.33;99219.25;1819302;77;21103;-81
2023/06/30 12:03:59;;;;;;;9.05;5.62;;;;;;;24.04;52.41;99209.59;1813826;78;21577;-80
2023/06/30 12:06:28;;;;;;;9.43;5.78;;;;;;;24.13;52.61;99214.72;1817659;77;21052;-64
2023/06/30 12:08:58;;;;;;;6.75;4.87;;;;;;;24.28;52.70;99214.96;1822901;77;21082;-75
2023/06/30 12:11:30;;;;;;;6.83;5.12;;;;;;;24.42;51.58;99196.13;1842451;77;21012;-78
2023/06/30 12:13:59;;;;;;;6.35;5.00;;;;;;;24.52;51.25;99206.24;1830411;77;21109;-79
2023/06/30 12:16:39;;;;;;;7.62;4.78;;;;;;;24.55;50.07;99204.20;1842281;78;21035;-80
2023/06/30 12:19:08;;;;;;;6.53;5.17;;;;;;;24.55;50.12;99197.20;1841658;77;21118;-79
2023/06/30 12:21:59;;;;;;;6.75;5.20;;;;;;;24.55;50.24;99197.20;1842079;77;21082;-75
2023/06/30 12:24:34;;;;;;;7.47;4.92;;;;;;;24.59;50.12;99191.22;1841729;77;21075;-78
2023/06/30 12:27:10;;;;;;;11.05;5.62;;;;;;;24.67;49.72;99182.03;1837069;77;21039;-78
2023/06/30 12:29:43;;;;;;;7.58;4.97;;;;;;;24.75;49.50;99166.45;1842570;78;21062;-78
2023/06/30 12:32:14;;;;;;;8.75;6.40;;;;;;;24.84;49.25;99165.35;1830110;77;21477;-78
2023/06/30 12:34:45;;;;;;;9.38;6.72;;;;;;;24.85;49.35;99157.20;1829944;78;21506;-78
2023/06/30 12:37:23;;;;;;;7.40;4.90;;;;;;;24.94;49.52;99162.84;1829923;77;21505;-78
2023/06/30 12:39:52;;;;;;;8.18;5.17;;;;;;;25.06;48.48;99172.07;1836766;78;21131;-76
2023/06/30 12:42:24;;;;;;;6.90;4.65;;;;;;;25.11;46.33;99158.73;1842402;76;21070;-77
2023/06/30 12:44:54;;;;;;;5.78;4.78;;;;;;;25.12;44.31;99189.83;1835779;78;21498;-77
2023/06/30 12:47:23;;;;;;;5.30;4.37;;;;;;;25.10;44.23;99193.53;1824719;78;21074;-78
2023/06/30 12:49:52;;;;;;;6.65;5.12;;;;;;;25.14;44.04;99197.91;1842168;77;21062;-80
2023/06/30 12:52:23;;;;;;;14.90;5.25;;;;;;;25.16;43.58;99202.05;1841660;77;21055;-78
2023/06/30 12:54:53;;;;;;;5.03;4.45;;;;;;;25.17;44.11;99210.70;1835645;77;21035;-77
2023/06/30 12:57:22;;;;;;;11.00;9.78;;;;;;;25.13;44.09;99210.27;1824015;78;21521;-78
2023/06/30 12:59:53;;;;;;;7.20;4.45;;;;;;;25.11;44.30;99204.16;1835103;77;21097;-77
2023/06/30 13:02:22;;;;;;;5.85;4.80;;;;;;;25.12;44.60;99200.21;1834103;77;21039;-78
2023/06/30 13:04:51;;;;;;;6.55;4.87;;;;;;;25.14;44.73;99209.13;1759161;80;21049;-79
2023/06/30 13:07:21;;;;;;;5.95;4.75;;;;;;;25.18;43.92;99200.32;1756581;81;21491;-76
2023/06/30 13:09:50;;;;;;;7.90;4.87;;;;;;;25.20;44.02;99207.25;1745808;81;21080;-77
2023/06/30 13:12:25;;;;;;;8.63;4.80;;;;;;;25.22;44.21;99202.15;1748541;81;21099;-80
2023/06/30 13:14:50;;;;;;;6.47;4.60;;;;;;;25.23;44.08;99202.40;1756359;80;21079;-78
2023/06/30 13:17:20;;;;;;;8.13;5.00;;;;;;;25.26;44.53;99205.13;1781268;79;21482;-79
2023/06/30 13:19:49;;;;;;;6.28;4.58;;;;;;;25.30;45.20;99208.94;1858262;77;21058;-78
2023/06/30 13:22:19;;;;;;;7.80;4.53;;;;;;;25.34;44.61;99221.16;1756029;80;21051;-77
2023/06/30 13:24:49;;;;;;;9.83;4.70;;;;;;;25.37;44.50;99256.17;1858907;77;21082;-80
2023/06/30 13:27:18;;;;;;;6.83;4.58;;;;;;;25.28;46.54;99257.51;1786540;79;21094;-77
2023/06/30 13:29:51;;;;;;;7.20;4.55;;;;;;;25.07;50.82;99259.22;1858598;77;21023;-78
2023/06/30 13:32:20;;;;;;;6.67;3.80;;;;;;;24.78;51.36;99254.89;1776356;80;21474;-80
2023/06/30 13:34:49;;;;;;;5.28;3.95;;;;;;;24.49;50.24;99251.69;1828578;77;21058;-80
2023/06/30 13:37:17;;;;;;;7.53;3.87;;;;;;;24.21;50.31;99250.93;1771062;80;21130;-79
2023/06/30 13:39:46;;;;;;;6.12;4.28;;;;;;;23.98;50.78;99248.63;1770933;80;21071;-78
2023/06/30 13:42:15;;;;;;;4.47;3.92;;;;;;;23.83;51.56;99245.60;1771073;80;21055;-78
2023/06/30 13:44:46;;;;;;;8.25;5.35;;;;;;;23.75;51.62;99246.91;1770149;81;21039;-76
2023/06/30 13:47:16;;;;;;;5.28;4.15;;;;;;;23.61;51.71;99241.33;1770806;81;21094;-76
2023/06/30 13:49:46;;;;;;;7.60;4.03;;;;;;;23.55;52.47;99243.98;1770733;80;21132;-71
2023/06/30 13:52:15;;;;;;;4.47;3.37;;;;;;;23.49;51.98;99237.63;1770415;81;21090;-76
2023/06/30 13:54:44;;;;;;;7.03;3.85;;;;;;;23.44;51.62;99230.75;1740362;80;21095;-78
2023/06/30 13:57:15;;;;;;;26.37;10.98;;;;;;;23.38;51.91;99236.16;1767740;81;21138;-78
2023/06/30 13:59:45;;;;;;;6.92;4.85;;;;;;;23.37;52.09;99229.73;1759839;80;21067;-78
2023/06/30 14:02:15;;;;;;;6.60;4.15;;;;;;;23.36;52.10;99226.68;1764296;80;21071;-78
2023/06/30 14:04:45;;;;;;;6.05;3.90;;;;;;;23.37;52.05;99221.92;1770959;80;21534;-78
2023/06/30 14:07:14;;;;;;;8.65;4.83;;;;;;;23.39;52.16;99219.64;1748174;81;21087;-76
2023/06/30 14:09:44;;;;;;;5.72;4.37;;;;;;;23.42;52.58;99210.66;1755779;80;21091;-74
2023/06/30 14:12:13;;;;;;;8.78;4.42;;;;;;;23.44;51.69;99207.55;1777426;81;21442;-78
2023/06/30 14:14:43;;;;;;;5.65;4.05;;;;;;;23.43;51.13;99212.89;1759847;80;21130;-78
2023/06/30 14:17:14;;;;;;;8.03;4.62;;;;;;;23.38;50.80;99218.81;1757840;80;21058;-77
2023/06/30 14:19:43;;;;;;;5.65;3.83;;;;;;;23.38;50.89;99227.77;1780847;80;21490;-77
2023/06/30 14:22:13;;;;;;;5.65;4.45;;;;;;;23.39;50.15;99232.22;1780738;79;21074;-77
2023/06/30 14:24:42;;;;;;;5.72;4.00;;;;;;;23.39;49.94;99227.45;1780701;79;21055;-78
2023/06/30 14:27:12;;;;;;;4.60;3.90;;;;;;;23.46;50.38;99225.67;1780787;79;21549;-77
2023/06/30 14:29:42;;;;;;;5.65;3.77;;;;;;;23.57;50.29;99219.33;1780841;79;21008;-77
2023/06/30 14:32:11;;;;;;;9.08;4.37;;;;;;;23.67;49.63;99216.31;1777510;79;21454;-79
2023/06/30 14:34:42;;;;;;;6.45;4.15;;;;;;;23.77;49.56;99211.89;1754939;80;21111;-75
2023/06/30 14:37:12;;;;;;;7.00;4.10;;;;;;;23.89;49.51;99214.14;1780799;79;21521;-73
2023/06/30 14:39:41;;;;;;;5.95;4.58;;;;;;;24.03;49.09;99217.73;1779264;79;21126;-76
2023/06/30 14:42:11;;;;;;;6.25;4.40;;;;;;;24.14;48.33;99205.19;1777736;79;21051;-79
2023/06/30 14:44:41;;;;;;;8.50;4.42;;;;;;;24.22;48.16;99203.03;1777830;80;21095;-74
2023/06/30 14:47:11;;;;;;;7.78;4.17;;;;;;;24.28;47.58;99184.99;1780712;79;21556;-76
2023/06/30 14:49:40;;;;;;;7.83;4.25;;;;;;;24.30;47.44;99178.50;1780443;79;21043;-78
2023/06/30 14:52:09;;;;;;;4.33;3.77;;;;;;;24.31;47.52;99180.16;1780645;79;21113;-75
2023/06/30 14:54:39;;;;;;;9.45;4.92;;;;;;;24.33;46.97;99178.44;1776463;80;21067;-75
2023/06/30 14:57:08;;;;;;;6.67;4.12;;;;;;;24.31;46.51;99179.33;1778799;80;21078;-64
2023/06/30 14:59:37;;;;;;;6.47;4.30;;;;;;;24.32;46.69;99177.61;1780553;79;21265;-78
2023/06/30 15:02:07;;;;;;;6.83;4.28;;;;;;;24.36;46.51;99181.17;1780723;79;21524;-76
2023/06/30 15:04:37;;;;;;;6.85;4.10;;;;;;;24.41;46.62;99170.67;1777639;79;21016;-79
2023/06/30 15:07:07;;;;;;;5.35;4.28;;;;;;;24.50;46.46;99176.33;1765522;79;21490;-77